Time;durP1;ratioP1;P1;durP2;ratioP2;P2;SDS_P1;SDS_P2;PMS_P1;PMS_P2;Temp;Humidity;BMP_temperature;BMP_pressure;BME280_temperature;BME280_humidity;BME280_pressure;Samples;Min_cycle;Max_cycle;Signal;HPM_P1;HPM_P2
2023/10/27 00:05:06;;;;;;;27.10;15.30;;;;;;;9.70;95.62;96614.78;433802;1260;98311;-41
2023/10/27 00:15:10;;;;;;;19.80;13.40;;;;;;;9.61;95.22;96597.31;433715;1261;98363;-41
2023/10/27 00:25:14;;;;;;;20.50;13.60;;;;;;;9.55;95.06;96595.97;433735;1261;109231;-40
2023/10/27 00:35:18;;;;;;;20.00;13.90;;;;;;;9.53;95.20;96597.94;433734;1257;108567;-41
2023/10/27 00:45:22;;;;;;;19.30;13.30;;;;;;;9.55;95.56;96598.29;433433;1258;464517;-39
2023/10/27 01:05:29;;;;;;;27.10;15.80;;;;;;;9.29;95.21;96607.55;433739;1261;97903;-40
2023/10/27 01:15:32;;;;;;;23.10;15.70;;;;;;;9.24;95.27;96591.70;434458;1259;110103;-40
2023/10/27 01:25:36;;;;;;;21.80;14.70;;;;;;;9.32;95.64;96585.16;434169;1258;107921;-41
2023/10/27 01:35:39;;;;;;;26.90;16.40;;;;;;;9.46;95.81;96567.20;434222;1255;97765;-41
2023/10/27 01:45:42;;;;;;;28.20;19.60;;;;;;;9.26;95.03;96553.65;434314;1253;110670;-41
2023/10/27 01:55:46;;;;;;;40.20;24.90;;;;;;;8.83;94.96;96548.02;434271;1257;96658;-40
2023/10/27 02:05:49;;;;;;;33.90;22.20;;;;;;;8.46;94.75;96555.18;434473;1256;110733;-39
2023/10/27 02:15:53;;;;;;;28.80;20.90;;;;;;;8.32;95.16;96537.08;434181;1257;108379;-42
2023/10/27 02:25:57;;;;;;;24.90;19.10;;;;;;;8.21;95.29;96533.86;434189;1257;97963;-39
2023/10/27 02:36:05;;;;;;;26.80;19.80;;;;;;;8.08;95.07;96537.25;434371;1256;107391;-40
2023/10/27 02:56:13;;;;;;;34.20;24.50;;;;;;;7.71;95.16;96530.14;434266;1254;111544;-40
2023/10/27 03:06:19;;;;;;;40.00;29.50;;;;;;;7.46;95.18;96528.42;434050;1257;96576;-40
2023/10/27 03:16:23;;;;;;;36.60;26.40;;;;;;;7.32;95.26;96525.56;434179;1254;97915;-39
2023/10/27 03:26:26;;;;;;;33.10;24.10;;;;;;;7.22;95.22;96522.06;434283;1258;109621;-40
2023/10/27 03:36:29;;;;;;;36.70;23.50;;;;;;;7.20;95.50;96522.95;434175;1257;108284;-40
2023/10/27 03:46:33;;;;;;;39.50;23.20;;;;;;;7.21;95.73;96525.27;434326;1257;97903;-40
2023/10/27 03:56:37;;;;;;;29.70;20.50;;;;;;;7.20;95.72;96521.90;434262;1258;107639;-40
2023/10/27 04:06:40;;;;;;;31.80;21.40;;;;;;;7.26;96.07;96521.44;434191;1257;97872;-42
2023/10/27 04:16:43;;;;;;;32.90;22.70;;;;;;;7.23;95.92;96510.29;434300;1257;110196;-42
2023/10/27 04:26:50;;;;;;;39.20;27.60;;;;;;;7.20;96.16;96495.41;434398;1253;108489;-40
2023/10/27 04:36:55;;;;;;;55.30;36.40;;;;;;;7.07;96.01;96493.48;434313;1257;97938;-40
2023/10/27 04:46:59;;;;;;;44.80;32.20;;;;;;;7.05;96.31;96491.11;434333;1258;96780;-40
2023/10/27 05:07:10;;;;;;;40.70;28.00;;;;;;;7.29;96.54;96461.09;434313;1255;97862;-39
2023/10/27 05:17:13;;;;;;;43.00;30.70;;;;;;;7.29;96.20;96466.14;434381;1257;108857;-39
2023/10/27 05:27:16;;;;;;;46.20;29.60;;;;;;;7.02;95.85;96463.73;434376;1255;96659;-40
2023/10/27 05:47:22;;;;;;;43.10;29.30;;;;;;;6.58;95.42;96465.89;434452;1255;107559;-39
2023/10/27 06:07:29;;;;;;;59.50;33.90;;;;;;;6.80;96.43;96465.41;434292;1258;108656;-39
2023/10/27 06:37:39;;;;;;;72.00;49.60;;;;;;;7.72;97.25;96451.43;434671;1258;107635;-39
2023/10/27 06:47:42;;;;;;;64.70;44.40;;;;;;;7.92;97.49;96459.67;434507;1257;98527;-41
2023/10/27 06:57:46;;;;;;;64.80;43.40;;;;;;;8.22;97.67;96470.89;434397;1258;109564;-39
2023/10/27 07:07:54;;;;;;;59.20;41.70;;;;;;;8.54;97.90;96479.04;434524;1258;98163;-40
2023/10/27 07:18:01;;;;;;;58.00;39.70;;;;;;;9.00;98.20;96456.12;434524;1257;111322;-40
2023/10/27 07:28:04;;;;;;;64.50;40.40;;;;;;;9.43;98.30;96450.64;434369;1255;107021;-39
2023/10/27 07:38:07;;;;;;;63.90;43.30;;;;;;;9.66;98.16;96446.60;434603;1258;97471;-40
2023/10/27 07:48:11;;;;;;;67.70;43.30;;;;;;;9.80;97.79;96447.70;434536;1259;97825;-40
2023/10/27 07:58:15;;;;;;;51.80;37.10;;;;;;;10.00;97.93;96442.55;434544;1258;108459;-40
2023/10/27 08:08:18;;;;;;;54.10;37.10;;;;;;;10.38;98.45;96432.88;434499;1253;97877;-40
2023/10/27 08:18:21;;;;;;;57.20;38.80;;;;;;;10.94;98.87;96423.11;434558;1259;109210;-41
2023/10/27 08:28:27;;;;;;;52.40;31.10;;;;;;;11.12;98.23;96416.68;434618;1253;97488;-40
2023/10/27 08:38:31;;;;;;;50.70;32.20;;;;;;;11.03;97.57;96400.02;434693;1257;110314;-40
2023/10/27 08:48:34;;;;;;;56.30;31.80;;;;;;;11.11;97.30;96394.21;434355;1258;97807;-39
2023/10/27 09:08:42;;;;;;;43.30;26.30;;;;;;;11.24;96.95;96376.30;434661;1259;110797;-43
2023/10/27 09:28:59;;;;;;;22.40;15.10;;;;;;;11.23;96.47;96367.47;434526;1258;97967;-40
2023/10/27 09:39:15;;;;;;;19.00;12.40;;;;;;;11.23;96.05;96359.73;434549;1258;107628;-40
2023/10/27 09:49:21;;;;;;;23.80;15.50;;;;;;;11.23;95.85;96366.14;434411;1256;97882;-41
2023/10/27 10:30:11;;;;;;;32.00;18.70;;;;;;;11.19;94.76;96323.67;434540;1258;108052;-40
2023/10/27 10:40:18;;;;;;;20.20;15.70;;;;;;;11.18;94.64;96309.95;434494;1253;97772;-40
2023/10/27 11:00:33;;;;;;;23.80;18.00;;;;;;;10.96;94.32;96280.72;434375;1266;107668;-40
2023/10/27 11:10:37;;;;;;;31.30;18.30;;;;;;;10.85;94.54;96267.63;434696;1257;97890;-40
2023/10/27 11:20:43;;;;;;;30.60;18.60;;;;;;;10.72;94.46;96269.46;434436;1257;97884;-41
2023/10/27 11:31:00;;;;;;;32.80;18.10;;;;;;;10.63;94.64;96263.36;434483;1259;108552;-40
2023/10/27 11:51:13;;;;;;;26.30;17.50;;;;;;;10.70;95.22;96257.88;434623;1259;107414;-41
2023/10/27 12:01:17;;;;;;;26.50;18.00;;;;;;;10.68;95.20;96255.85;434447;1266;96738;-41
2023/10/27 12:11:20;;;;;;;25.80;17.90;;;;;;;10.63;95.27;96248.08;434361;1258;109656;-40
2023/10/27 12:21:25;;;;;;;29.90;17.60;;;;;;;10.55;95.37;96247.30;434327;1258;109351;-40
2023/10/27 12:31:28;;;;;;;27.90;21.20;;;;;;;10.37;95.78;96250.90;434490;1266;97853;-40
2023/10/27 12:41:32;;;;;;;31.80;20.30;;;;;;;10.40;95.98;96243.46;434024;1259;391085;-40
2023/10/27 13:01:38;;;;;;;34.70;23.20;;;;;;;10.54;96.53;96230.73;434280;1259;97892;-39
2023/10/27 13:11:42;;;;;;;56.10;24.90;;;;;;;10.58;96.65;96223.11;434353;1259;107943;-39
2023/10/27 13:31:48;;;;;;;43.70;26.90;;;;;;;10.50;96.98;96214.52;434397;1258;109703;-39
2023/10/27 13:41:51;;;;;;;34.80;22.90;;;;;;;10.44;96.99;96215.73;434232;1257;108645;-41
2023/10/27 14:02:01;;;;;;;28.90;18.70;;;;;;;10.37;97.36;96220.03;434286;1255;107631;-39
2023/10/27 14:12:09;;;;;;;30.70;19.60;;;;;;;10.33;97.48;96229.86;434350;1266;97474;-39
2023/10/27 14:22:13;;;;;;;27.40;19.30;;;;;;;10.24;97.49;96235.29;434260;1266;110701;-41
2023/10/27 14:32:16;;;;;;;26.60;18.40;;;;;;;10.19;97.64;96242.47;434288;1258;108216;-39
2023/10/27 14:42:19;;;;;;;29.00;20.50;;;;;;;10.16;97.92;96242.53;434260;1260;97149;-40
2023/10/27 14:52:27;;;;;;;24.60;17.80;;;;;;;10.15;98.12;96246.08;434262;1258;109473;-40
2023/10/27 15:02:30;;;;;;;21.20;15.00;;;;;;;10.08;98.24;96258.02;434113;1276;97896;-40
2023/10/27 15:12:32;;;;;;;29.20;20.00;;;;;;;10.01;98.27;96267.63;434313;1254;110239;-39
2023/10/27 15:22:35;;;;;;;41.80;22.50;;;;;;;9.97;98.60;96275.29;434323;1276;106569;-40
2023/10/27 15:32:39;;;;;;;34.10;18.00;;;;;;;9.89;98.54;96289.98;434117;1257;97883;-40
2023/10/27 15:42:46;;;;;;;27.80;18.70;;;;;;;9.87;98.69;96303.56;434111;1258;108528;-40
2023/10/27 15:52:50;;;;;;;23.50;16.70;;;;;;;9.89;98.65;96309.52;434202;1266;98006;-40
2023/10/27 16:13:05;;;;;;;24.80;18.60;;;;;;;9.76;98.97;96328.14;434282;1256;109309;-41
2023/10/27 16:23:32;;;;;;;24.10;19.50;;;;;;;9.73;98.94;96328.23;434236;1258;97847;-40
2023/10/27 16:33:35;;;;;;;25.20;17.00;;;;;;;9.68;99.00;96339.73;434159;1254;107515;-40
2023/10/27 16:53:44;;;;;;;25.80;18.80;;;;;;;9.58;99.24;96363.04;434103;1254;109646;-41
2023/10/27 17:03:47;;;;;;;29.70;18.50;;;;;;;9.55;99.29;96370.34;434416;1256;106886;-40
2023/10/27 17:13:51;;;;;;;19.40;14.00;;;;;;;9.45;99.13;96381.62;434092;1258;98262;-42
2023/10/27 17:23:56;;;;;;;26.80;18.30;;;;;;;9.34;99.31;96386.30;434190;1266;108360;-41
2023/10/27 17:44:07;;;;;;;23.10;16.00;;;;;;;9.32;99.37;96394.70;434255;1266;110119;-39
2023/10/27 18:04:14;;;;;;;26.50;18.10;;;;;;;9.19;99.23;96412.88;434296;1266;97906;-41
2023/10/27 18:24:23;;;;;;;27.70;20.90;;;;;;;9.03;99.42;96434.09;434224;1257;97856;-40
2023/10/27 18:34:25;;;;;;;26.40;18.60;;;;;;;8.99;99.25;96433.78;434225;1257;111701;-42
2023/10/27 18:44:29;;;;;;;31.40;21.50;;;;;;;8.94;99.27;96440.23;434111;1257;106923;-41
2023/10/27 18:54:36;;;;;;;48.80;32.10;;;;;;;8.88;99.36;96449.08;434242;1254;97868;-40
2023/10/27 19:15:02;;;;;;;25.40;19.30;;;;;;;8.77;99.35;96469.16;434387;1254;97899;-40
2023/10/27 19:45:16;;;;;;;33.00;20.30;;;;;;;8.85;99.11;96503.70;434233;1257;97165;-40
2023/10/27 19:55:20;;;;;;;45.50;26.60;;;;;;;8.84;99.40;96516.20;434209;1254;107801;-41
2023/10/27 20:05:23;;;;;;;83.00;47.60;;;;;;;8.71;99.24;96524.18;434443;1257;97796;-40
2023/10/27 20:15:27;;;;;;;31.80;21.40;;;;;;;8.65;99.14;96535.39;434162;1258;109881;-40
2023/10/27 20:25:32;;;;;;;62.30;37.80;;;;;;;8.60;99.13;96539.04;434232;1276;109288;-40
2023/10/27 20:35:36;;;;;;;37.00;21.30;;;;;;;8.62;99.13;96549.20;434178;1253;97865;-40
2023/10/27 20:55:44;;;;;;;24.20;15.10;;;;;;;8.57;99.05;96569.13;434388;1257;97919;-39
2023/10/27 21:05:49;;;;;;;32.20;20.50;;;;;;;8.54;99.19;96584.26;434324;1254;109798;-40
2023/10/27 21:15:55;;;;;;;24.50;16.70;;;;;;;8.42;99.13;96594.95;434507;1253;97900;-40
2023/10/27 21:25:59;;;;;;;26.50;17.90;;;;;;;8.37;99.15;96602.13;434448;1259;97877;-40
2023/10/27 21:46:10;;;;;;;33.50;23.00;;;;;;;8.52;99.31;96624.83;434223;1257;108469;-41
2023/10/27 21:56:14;;;;;;;27.50;19.40;;;;;;;8.59;99.25;96637.25;434287;1254;96600;-40
2023/10/27 22:06:17;;;;;;;24.20;17.90;;;;;;;8.55;99.44;96644.20;434483;1253;107627;-40
2023/10/27 22:16:22;;;;;;;30.20;19.30;;;;;;;8.49;99.53;96653.58;434209;1254;97500;-40
2023/10/27 22:36:28;;;;;;;28.90;19.80;;;;;;;8.49;99.49;96673.17;434441;1257;108485;-40
2023/10/27 22:46:31;;;;;;;39.10;24.40;;;;;;;8.56;99.52;96682.41;434403;1258;97881;-39
2023/10/27 22:56:35;;;;;;;37.00;22.50;;;;;;;8.62;99.80;96693.36;434272;1257;108852;-41
2023/10/27 23:16:45;;;;;;;35.40;23.70;;;;;;;8.79;99.90;96704.36;434245;1255;110798;-39
2023/10/27 23:26:49;;;;;;;30.00;18.90;;;;;;;8.77;99.89;96713.86;434286;1258;109270;-39
2023/10/27 23:36:53;;;;;;;18.00;12.80;;;;;;;8.70;99.84;96723.54;434331;1257;97480;-40
2023/10/27 23:46:56;;;;;;;21.00;13.80;;;;;;;8.65;99.85;96725.18;434312;1257;96613;-40
2023/10/27 23:57:00;;;;;;;21.20;14.90;;;;;;;8.72;99.97;96732.39;434137;1258;108067;-40
